Time;durP1;ratioP1;P1;durP2;ratioP2;P2;SDS_P1;SDS_P2;PMS_P1;PMS_P2;Temp;Humidity;BMP_temperature;BMP_pressure;BME280_temperature;BME280_humidity;BME280_pressure;Samples;Min_cycle;Max_cycle;Signal;HPM_P1;HPM_P2
2021/03/15 00:02:15;;;;;;;7.40;3.05;;;2.80;99.90;;;;;;5030222;28;20115;-71
2021/03/15 00:04:59;;;;;;;9.52;3.50;;;2.80;99.90;;;;;;5016731;28;20130;-71
2021/03/15 00:07:44;;;;;;;8.93;4.32;;;2.80;99.90;;;;;;5026035;28;20535;-71
2021/03/15 00:10:28;;;;;;;8.85;3.90;;;2.80;99.90;;;;;;5022380;28;20075;-71
2021/03/15 00:13:14;;;;;;;15.20;4.60;;;2.80;99.90;;;;;;5015731;28;20174;-71
2021/03/15 00:15:59;;;;;;;11.00;4.45;;;2.80;99.90;;;;;;5014974;28;20053;-71
2021/03/15 00:19:03;;;;;;;12.18;3.45;;;2.80;99.90;;;;;;5016964;28;20042;-71
2021/03/15 00:21:55;;;;;;;13.07;4.50;;;2.70;99.90;;;;;;5027326;28;20121;-71
2021/03/15 00:24:40;;;;;;;12.25;4.25;;;2.70;99.90;;;;;;5016139;28;20494;-71
2021/03/15 00:27:24;;;;;;;14.57;4.88;;;2.70;99.90;;;;;;5018646;28;20103;-71
2021/03/15 00:30:11;;;;;;;13.57;3.33;;;2.80;99.90;;;;;;5018637;28;20148;-71
2021/03/15 00:32:56;;;;;;;12.05;4.13;;;2.80;99.90;;;;;;5016412;28;20172;-71
2021/03/15 00:35:40;;;;;;;16.08;4.13;;;2.90;99.90;;;;;;5013473;28;20040;-71
2021/03/15 00:38:24;;;;;;;13.18;3.85;;;2.80;99.90;;;;;;5015898;28;20030;-71
2021/03/15 00:41:08;;;;;;;15.20;4.60;;;2.80;99.90;;;;;;5024212;28;20064;-71
2021/03/15 00:43:54;;;;;;;13.18;4.95;;;2.80;99.90;;;;;;5022766;28;20045;-71
2021/03/15 00:46:38;;;;;;;19.25;4.72;;;2.80;99.90;;;;;;5017925;28;20545;-71
2021/03/15 00:49:23;;;;;;;11.02;3.50;;;2.80;99.90;;;;;;5021963;28;20118;-71
2021/03/15 00:52:07;;;;;;;17.05;3.83;;;2.80;99.90;;;;;;5015990;28;20045;-71
2021/03/15 00:54:51;;;;;;;15.30;4.38;;;2.80;99.90;;;;;;5019497;28;20072;-71
2021/03/15 00:57:35;;;;;;;11.25;3.85;;;2.80;99.90;;;;;;5024056;28;20538;-71
2021/03/15 01:00:27;;;;;;;15.60;4.35;;;2.80;99.90;;;;;;5022708;28;20354;-71
2021/03/15 01:03:32;;;;;;;13.23;3.72;;;2.80;99.90;;;;;;5019753;28;20526;-71
2021/03/15 01:06:36;;;;;;;16.88;5.63;;;2.80;99.90;;;;;;5020438;28;20065;-71
2021/03/15 01:09:41;;;;;;;18.30;5.07;;;2.80;99.90;;;;;;5018276;28;20132;-71
2021/03/15 01:12:36;;;;;;;9.57;3.60;;;2.70;99.90;;;;;;5026651;28;20339;-71
2021/03/15 01:15:21;;;;;;;12.10;5.15;;;2.70;99.90;;;;;;5029829;28;20040;-71
2021/03/15 01:18:06;;;;;;;16.55;4.63;;;2.70;99.90;;;;;;5019423;28;20033;-71
2021/03/15 01:20:50;;;;;;;19.05;5.15;;;2.80;99.90;;;;;;5022514;28;20083;-71
2021/03/15 01:23:34;;;;;;;17.08;5.20;;;2.80;99.90;;;;;;5022064;28;20607;-71
2021/03/15 01:26:39;;;;;;;17.85;5.30;;;2.80;99.90;;;;;;5016064;28;20034;-71
2021/03/15 01:29:43;;;;;;;13.75;4.72;;;2.90;99.90;;;;;;5018408;28;20038;-71
2021/03/15 01:32:30;;;;;;;13.48;4.20;;;2.90;99.90;;;;;;5024660;28;20029;-71
2021/03/15 01:35:15;;;;;;;9.82;2.95;;;2.90;99.90;;;;;;5027891;28;20434;-71
2021/03/15 01:38:06;;;;;;;17.63;5.93;;;3.00;99.90;;;;;;5021627;28;20064;-71
2021/03/15 01:40:50;;;;;;;13.23;3.50;;;3.10;99.90;;;;;;5023329;28;20034;-71
2021/03/15 01:43:37;;;;;;;12.75;4.25;;;3.00;99.90;;;;;;5022539;28;20060;-71
2021/03/15 01:46:21;;;;;;;15.27;5.47;;;3.00;99.90;;;;;;5031598;28;20033;-71
2021/03/15 01:49:05;;;;;;;13.60;5.28;;;3.00;99.90;;;;;;5027545;28;20033;-71
2021/03/15 01:51:50;;;;;;;22.63;6.05;;;3.10;99.90;;;;;;5023936;28;20367;-71
2021/03/15 01:54:34;;;;;;;19.63;5.70;;;3.10;99.90;;;;;;5029542;28;20457;-71
2021/03/15 01:57:20;;;;;;;13.32;5.00;;;3.10;99.90;;;;;;5027392;28;20083;-71
2021/03/15 02:00:06;;;;;;;22.42;5.60;;;3.10;99.90;;;;;;5023194;28;20375;-71
2021/03/15 02:02:56;;;;;;;18.45;5.82;;;3.10;99.90;;;;;;5030415;28;20496;-71
2021/03/15 02:05:42;;;;;;;18.85;6.22;;;3.20;99.90;;;;;;5024002;28;20123;-71
2021/03/15 02:08:26;;;;;;;18.42;4.28;;;3.10;99.90;;;;;;5026459;28;20287;-71
2021/03/15 02:11:36;;;;;;;23.67;6.43;;;3.10;99.90;;;;;;5021814;28;20041;-71
2021/03/15 02:14:58;;;;;;;15.35;4.40;;;3.20;99.90;;;;;;5022569;28;20091;-71
2021/03/15 02:18:44;;;;;;;19.63;5.55;;;3.10;99.90;;;;;;5024895;28;20076;-71
2021/03/15 02:22:04;;;;;;;22.58;4.90;;;3.20;99.90;;;;;;4974972;28;20368;-71
2021/03/15 02:25:25;;;;;;;12.77;4.35;;;3.10;99.90;;;;;;4980986;28;20073;-71
2021/03/15 02:28:47;;;;;;;13.50;4.13;;;3.10;99.90;;;;;;5016887;28;20073;-70
2021/03/15 02:31:34;;;;;;;16.90;4.25;;;3.10;99.90;;;;;;5013370;28;20056;-70
2021/03/15 02:34:57;;;;;;;19.58;5.13;;;3.20;99.90;;;;;;5035473;28;20208;-70
2021/03/15 02:38:04;;;;;;;12.07;3.60;;;3.20;99.90;;;;;;5023792;28;20045;-70
2021/03/15 02:41:00;;;;;;;17.10;4.25;;;3.20;99.90;;;;;;5026580;28;20154;-71
2021/03/15 02:43:51;;;;;;;20.15;4.60;;;3.00;99.90;;;;;;5025796;28;20046;-71
2021/03/15 02:46:36;;;;;;;11.63;3.78;;;3.10;99.90;;;;;;5037018;28;20049;-70
2021/03/15 02:49:35;;;;;;;23.50;5.28;;;3.10;99.90;;;;;;5024537;28;20477;-70
2021/03/15 02:52:22;;;;;;;17.75;4.28;;;3.20;99.90;;;;;;5019872;28;20044;-71
2021/03/15 02:55:08;;;;;;;21.50;4.32;;;3.10;99.90;;;;;;5035596;28;20044;-71
2021/03/15 02:57:57;;;;;;;18.70;4.25;;;3.10;99.90;;;;;;5038058;28;20033;-71
2021/03/15 03:00:43;;;;;;;18.45;4.95;;;3.20;99.90;;;;;;5026027;28;20079;-71
2021/03/15 03:03:29;;;;;;;17.48;4.68;;;3.30;99.90;;;;;;5023009;28;20287;-70
2021/03/15 03:06:16;;;;;;;19.13;5.30;;;3.30;99.90;;;;;;5017315;28;20102;-70
2021/03/15 03:09:01;;;;;;;16.48;4.43;;;3.30;99.90;;;;;;5020320;28;20095;-70
2021/03/15 03:11:48;;;;;;;20.58;4.20;;;3.30;99.90;;;;;;5026253;28;20052;-70
2021/03/15 03:14:35;;;;;;;14.70;4.18;;;3.30;99.90;;;;;;5022214;28;20029;-71
2021/03/15 03:17:21;;;;;;;14.70;5.15;;;3.30;99.90;;;;;;5023683;28;20605;-71
2021/03/15 03:20:10;;;;;;;19.02;5.60;;;3.40;99.90;;;;;;5014618;28;20452;-70
2021/03/15 03:23:11;;;;;;;13.68;4.32;;;3.30;99.90;;;;;;5019445;28;20030;-70
2021/03/15 03:25:56;;;;;;;17.00;3.63;;;3.30;99.90;;;;;;5022856;28;20132;-70
2021/03/15 03:28:48;;;;;;;15.77;4.13;;;3.30;99.90;;;;;;5023106;28;20037;-70
2021/03/15 03:31:36;;;;;;;8.85;2.05;;;3.30;99.90;;;;;;5040985;28;20140;-71
2021/03/15 03:34:22;;;;;;;11.85;3.10;;;3.20;99.90;;;;;;5015198;28;20044;-71
2021/03/15 03:37:07;;;;;;;9.65;3.33;;;3.20;99.90;;;;;;5032670;28;20084;-70
2021/03/15 03:39:52;;;;;;;9.13;2.40;;;3.20;99.90;;;;;;5023527;28;20035;-70
2021/03/15 03:42:36;;;;;;;8.85;1.85;;;3.20;99.90;;;;;;5017857;28;20116;-70
2021/03/15 03:45:21;;;;;;;8.98;3.17;;;3.20;99.90;;;;;;5023555;28;20118;-71
2021/03/15 03:48:07;;;;;;;9.65;3.50;;;3.20;99.90;;;;;;5026596;28;20196;-70
2021/03/15 03:50:52;;;;;;;10.98;2.83;;;3.20;99.90;;;;;;5025620;28;20047;-70
2021/03/15 03:53:41;;;;;;;9.70;3.25;;;3.20;99.90;;;;;;5034495;28;20080;-70
2021/03/15 03:56:32;;;;;;;13.32;4.25;;;3.20;99.90;;;;;;5018581;28;20052;-70
2021/03/15 03:59:21;;;;;;;7.15;2.78;;;3.10;99.90;;;;;;5018141;28;20037;-70
2021/03/15 04:02:09;;;;;;;9.32;2.70;;;2.90;99.90;;;;;;5022872;28;20095;-70
2021/03/15 04:05:08;;;;;;;6.70;2.13;;;2.90;99.90;;;;;;5024134;28;20056;-70
2021/03/15 04:08:04;;;;;;;6.97;2.83;;;2.90;99.90;;;;;;5023419;28;20043;-70
2021/03/15 04:11:01;;;;;;;8.10;2.80;;;2.90;99.90;;;;;;5018239;28;20510;-70
2021/03/15 04:13:50;;;;;;;6.63;2.72;;;2.90;99.90;;;;;;5021499;28;20083;-70
2021/03/15 04:16:38;;;;;;;7.40;2.30;;;2.80;99.90;;;;;;5033170;28;20215;-70
2021/03/15 04:19:27;;;;;;;5.05;2.10;;;2.90;99.90;;;;;;5035977;28;20029;-70
2021/03/15 04:22:12;;;;;;;8.25;2.05;;;2.90;99.90;;;;;;5030364;28;20033;-70
2021/03/15 04:24:59;;;;;;;5.82;2.47;;;2.90;99.90;;;;;;5006700;28;20578;-70
2021/03/15 04:28:05;;;;;;;7.22;1.85;;;2.90;99.90;;;;;;5022343;28;20038;-70
2021/03/15 04:31:10;;;;;;;4.60;1.98;;;2.80;99.90;;;;;;5021685;28;20072;-70
2021/03/15 04:34:16;;;;;;;2.47;1.25;;;2.80;99.90;;;;;;5023234;28;20026;-70
2021/03/15 04:37:22;;;;;;;5.88;1.90;;;2.80;99.90;;;;;;5025841;28;20065;-70
2021/03/15 04:40:29;;;;;;;6.13;2.00;;;2.70;99.90;;;;;;5015020;28;20042;-70
2021/03/15 04:43:20;;;;;;;6.18;1.63;;;2.80;99.90;;;;;;5017718;28;20044;-70
2021/03/15 04:46:06;;;;;;;6.97;2.15;;;2.80;99.90;;;;;;5018574;28;20100;-69
2021/03/15 04:48:51;;;;;;;5.25;2.25;;;2.80;99.90;;;;;;5022654;28;20503;-70
2021/03/15 04:51:37;;;;;;;6.30;2.00;;;2.80;99.90;;;;;;5026658;28;20117;-70
2021/03/15 04:54:45;;;;;;;2.70;1.23;;;2.80;99.90;;;;;;5023996;28;20053;-70
2021/03/15 04:57:32;;;;;;;3.05;1.83;;;2.80;99.90;;;;;;5014986;28;20119;-70
2021/03/15 05:00:17;;;;;;;4.30;1.45;;;2.70;99.90;;;;;;5024398;28;20041;-70
2021/03/15 05:03:06;;;;;;;2.38;1.20;;;2.80;99.90;;;;;;5013869;28;20030;-70
2021/03/15 05:05:52;;;;;;;2.55;1.25;;;2.70;99.90;;;;;;5025916;28;20064;-70
2021/03/15 05:08:58;;;;;;;1.90;0.80;;;2.60;99.90;;;;;;5024398;28;20033;-70
2021/03/15 05:11:44;;;;;;;3.08;1.17;;;2.50;99.90;;;;;;5013510;28;20042;-70
2021/03/15 05:14:28;;;;;;;1.33;0.75;;;2.50;99.90;;;;;;5030840;28;20064;-70
2021/03/15 05:17:17;;;;;;;5.70;1.40;;;2.50;99.90;;;;;;5024092;28;20042;-70
2021/03/15 05:20:13;;;;;;;1.70;1.05;;;2.50;99.90;;;;;;5017256;28;20037;-69
2021/03/15 05:22:58;;;;;;;2.45;1.20;;;2.40;99.90;;;;;;5023147;28;20111;-70
2021/03/15 05:25:45;;;;;;;4.05;1.13;;;2.40;99.90;;;;;;5024936;28;20052;-70
2021/03/15 05:28:30;;;;;;;1.95;0.90;;;2.30;99.90;;;;;;5018548;28;20410;-70
2021/03/15 05:31:19;;;;;;;2.63;1.25;;;2.30;99.90;;;;;;5021209;28;20475;-70
2021/03/15 05:34:06;;;;;;;2.70;1.38;;;2.30;99.90;;;;;;5019123;28;20117;-70
2021/03/15 05:36:56;;;;;;;8.98;2.25;;;2.30;99.90;;;;;;5024404;28;20034;-70
2021/03/15 05:39:41;;;;;;;1.95;0.90;;;2.30;99.90;;;;;;5029993;28;20036;-70
2021/03/15 05:42:40;;;;;;;2.47;1.58;;;2.20;99.90;;;;;;5024006;28;20021;-70
2021/03/15 05:45:42;;;;;;;5.07;1.27;;;2.20;99.90;;;;;;5044351;28;20060;-70
2021/03/15 05:48:41;;;;;;;2.88;1.05;;;2.30;99.90;;;;;;5023273;28;20415;-70
2021/03/15 05:51:47;;;;;;;1.50;0.90;;;2.30;99.90;;;;;;5026667;28;20052;-70
2021/03/15 05:55:18;;;;;;;2.33;1.55;;;2.30;99.90;;;;;;5028285;28;20506;-70
2021/03/15 05:58:16;;;;;;;8.77;1.63;;;2.30;99.90;;;;;;5016759;28;20060;-70
2021/03/15 06:01:23;;;;;;;3.35;1.80;;;2.40;99.90;;;;;;5024942;28;20040;-70
2021/03/15 06:04:37;;;;;;;4.47;1.80;;;2.40;99.90;;;;;;5021479;28;20029;-71
2021/03/15 06:07:26;;;;;;;3.63;1.48;;;2.50;99.90;;;;;;5025050;28;20171;-70
2021/03/15 06:10:18;;;;;;;4.30;2.33;;;2.50;99.90;;;;;;5033800;28;20482;-70
2021/03/15 06:13:12;;;;;;;3.90;1.45;;;2.60;99.90;;;;;;5028396;28;20518;-70
2021/03/15 06:15:58;;;;;;;3.72;2.22;;;2.60;99.90;;;;;;5028173;28;20037;-71
2021/03/15 06:18:44;;;;;;;3.13;1.70;;;2.70;99.90;;;;;;5033839;28;20522;-70
2021/03/15 06:21:49;;;;;;;2.92;1.20;;;2.70;99.90;;;;;;5031837;28;20075;-70
2021/03/15 06:24:35;;;;;;;2.65;1.38;;;2.70;99.90;;;;;;5029644;28;20041;-69
2021/03/15 06:27:19;;;;;;;3.05;1.52;;;2.70;99.90;;;;;;5024475;28;20026;-70
2021/03/15 06:30:04;;;;;;;3.55;2.38;;;2.70;99.90;;;;;;5027487;28;20091;-70
2021/03/15 06:32:59;;;;;;;3.22;1.65;;;2.80;99.90;;;;;;5030358;28;20095;-70
2021/03/15 06:35:46;;;;;;;3.70;2.25;;;2.90;99.90;;;;;;5031890;28;20047;-70
2021/03/15 06:38:32;;;;;;;4.55;2.50;;;3.00;99.90;;;;;;5009821;28;20088;-70
2021/03/15 06:41:18;;;;;;;3.00;1.48;;;3.00;99.90;;;;;;5009555;28;20033;-70
2021/03/15 06:44:17;;;;;;;3.28;2.20;;;3.00;99.90;;;;;;5011379;28;20045;-70
2021/03/15 06:47:02;;;;;;;4.68;2.30;;;3.00;99.90;;;;;;5012194;28;20049;-70
2021/03/15 06:49:47;;;;;;;2.35;1.48;;;3.10;99.90;;;;;;5014747;28;20084;-70
2021/03/15 06:52:54;;;;;;;3.08;1.75;;;3.10;99.90;;;;;;5021636;28;20080;-71
2021/03/15 06:55:59;;;;;;;5.07;3.22;;;3.20;99.90;;;;;;5021149;28;20032;-70
2021/03/15 06:58:57;;;;;;;4.88;3.30;;;3.20;99.90;;;;;;5042364;28;20212;-69
2021/03/15 07:01:43;;;;;;;6.03;3.13;;;3.30;99.90;;;;;;5035150;28;20052;-69
2021/03/15 07:04:27;;;;;;;5.25;2.75;;;3.40;99.90;;;;;;5030490;28;20044;-69
2021/03/15 07:07:19;;;;;;;8.20;4.97;;;3.40;99.90;;;;;;5024308;28;20647;-69
2021/03/15 07:10:20;;;;;;;5.20;3.28;;;3.50;99.90;;;;;;5027973;28;20068;-68
2021/03/15 07:13:15;;;;;;;13.60;7.50;;;3.60;99.90;;;;;;5026576;28;20056;-69
2021/03/15 07:15:59;;;;;;;6.45;3.70;;;3.70;99.90;;;;;;5026308;28;20121;-69
2021/03/15 07:18:44;;;;;;;8.88;5.40;;;3.70;99.90;;;;;;5032202;28;20074;-69
2021/03/15 07:21:37;;;;;;;12.27;7.78;;;3.80;99.90;;;;;;5020666;28;20040;-69
2021/03/15 07:24:29;;;;;;;12.98;8.43;;;3.80;99.90;;;;;;5028180;28;20083;-69
2021/03/15 07:27:36;;;;;;;13.18;7.85;;;3.90;99.90;;;;;;5020667;28;20033;-69
2021/03/15 07:30:37;;;;;;;8.23;5.53;;;4.10;99.90;;;;;;5029027;28;20049;-69
2021/03/15 07:33:21;;;;;;;10.27;7.10;;;4.30;99.90;;;;;;5013771;28;20036;-70
2021/03/15 07:36:32;;;;;;;12.13;5.82;;;4.30;99.90;;;;;;5028646;28;20120;-70
2021/03/15 07:39:51;;;;;;;9.35;6.85;;;4.40;99.90;;;;;;5018917;28;20030;-70
2021/03/15 07:43:06;;;;;;;11.07;7.30;;;4.60;99.90;;;;;;5023351;28;20041;-69
2021/03/15 07:45:54;;;;;;;10.05;6.65;;;4.70;99.90;;;;;;5021853;28;20128;-69
2021/03/15 07:48:38;;;;;;;10.10;6.45;;;4.80;99.90;;;;;;5024964;28;20509;-70
2021/03/15 07:51:35;;;;;;;11.38;6.55;;;4.90;99.90;;;;;;5024997;28;20545;-69
2021/03/15 07:54:24;;;;;;;7.95;5.72;;;5.00;99.90;;;;;;5022654;28;20041;-69
2021/03/15 07:57:11;;;;;;;7.07;5.03;;;5.10;99.90;;;;;;5023952;28;20030;-69
2021/03/15 07:59:57;;;;;;;8.88;5.07;;;5.10;99.90;;;;;;5025150;28;20064;-69
2021/03/15 08:02:42;;;;;;;7.55;5.75;;;5.10;99.90;;;;;;5019963;28;20056;-69
2021/03/15 08:05:27;;;;;;;7.40;5.63;;;5.20;99.90;;;;;;5035325;28;20033;-69
2021/03/15 08:08:11;;;;;;;6.97;4.75;;;5.30;99.90;;;;;;5032765;28;20038;-70
2021/03/15 08:11:12;;;;;;;8.57;5.25;;;5.40;99.90;;;;;;5020365;28;20523;-69
2021/03/15 08:14:00;;;;;;;7.63;4.88;;;5.50;99.90;;;;;;5011316;28;20084;-69
2021/03/15 08:16:48;;;;;;;6.43;4.47;;;5.60;99.90;;;;;;5027360;28;20562;-70
2021/03/15 08:19:35;;;;;;;8.13;5.28;;;5.70;99.90;;;;;;5026964;28;20541;-69
2021/03/15 08:22:26;;;;;;;6.13;4.18;;;5.80;99.90;;;;;;5018123;28;20042;-69
2021/03/15 08:25:11;;;;;;;7.20;4.40;;;5.90;99.90;;;;;;5011536;28;20407;-69
2021/03/15 08:28:02;;;;;;;9.88;4.93;;;6.00;99.90;;;;;;5041380;28;20583;-69
2021/03/15 08:30:53;;;;;;;6.00;3.88;;;6.00;99.90;;;;;;5023620;28;20038;-69
2021/03/15 08:33:52;;;;;;;3.70;2.50;;;5.90;99.90;;;;;;5011419;28;20033;-69
2021/03/15 08:36:38;;;;;;;4.32;2.80;;;6.00;99.90;;;;;;5027913;28;20112;-69
2021/03/15 08:39:33;;;;;;;3.90;2.60;;;6.20;99.90;;;;;;5016831;28;20546;-69
2021/03/15 08:42:21;;;;;;;4.82;2.47;;;6.30;99.90;;;;;;5023974;28;20055;-69
2021/03/15 08:45:28;;;;;;;3.78;2.50;;;6.20;99.90;;;;;;5025039;28;20057;-69
2021/03/15 08:48:13;;;;;;;3.58;1.70;;;6.30;99.90;;;;;;5023343;28;20041;-69
2021/03/15 08:50:58;;;;;;;6.35;2.28;;;6.30;99.90;;;;;;5027501;28;20108;-70
2021/03/15 08:53:48;;;;;;;3.38;1.27;;;6.10;99.90;;;;;;5025279;28;20125;-69
2021/03/15 08:56:47;;;;;;;2.75;1.23;;;6.00;99.90;;;;;;5022889;28;20029;-69
2021/03/15 08:59:33;;;;;;;3.22;1.45;;;6.10;99.90;;;;;;5029460;28;20399;-70
2021/03/15 09:02:36;;;;;;;2.17;1.10;;;6.30;99.90;;;;;;5019207;28;20383;-69
2021/03/15 09:05:28;;;;;;;1.75;0.95;;;6.70;99.90;;;;;;5010623;28;20033;-69
2021/03/15 09:08:12;;;;;;;1.65;0.75;;;6.80;99.90;;;;;;5025924;28;20068;-69
2021/03/15 09:10:56;;;;;;;1.67;0.90;;;6.80;99.90;;;;;;5026265;28;20128;-69
2021/03/15 09:13:41;;;;;;;1.58;0.75;;;6.90;99.90;;;;;;5021333;28;20049;-69
2021/03/15 09:16:29;;;;;;;2.25;0.68;;;6.90;99.90;;;;;;5031241;28;20389;-69
2021/03/15 09:19:24;;;;;;;1.52;0.50;;;6.90;99.90;;;;;;5032410;28;20509;-69
2021/03/15 09:22:26;;;;;;;2.75;0.50;;;6.70;99.90;;;;;;5022320;28;20108;-69
2021/03/15 09:25:18;;;;;;;1.77;0.50;;;6.60;99.90;;;;;;5031787;28;20149;-69
2021/03/15 09:28:17;;;;;;;2.05;0.50;;;6.50;99.90;;;;;;5022975;28;20355;-69
2021/03/15 09:31:08;;;;;;;0.82;0.50;;;6.60;99.90;;;;;;5026076;28;20513;-69
2021/03/15 09:33:56;;;;;;;0.77;0.40;;;6.70;99.90;;;;;;5025310;28;20099;-69
2021/03/15 09:36:41;;;;;;;1.83;0.40;;;6.60;99.90;;;;;;5031612;28;20565;-69
2021/03/15 09:39:27;;;;;;;1.45;0.47;;;6.50;99.90;;;;;;5027231;28;20030;-69
2021/03/15 09:42:12;;;;;;;0.80;0.50;;;6.50;99.90;;;;;;5017715;28;20115;-70
2021/03/15 09:44:57;;;;;;;1.05;0.40;;;6.50;99.90;;;;;;5025924;28;20060;-69
2021/03/15 09:47:41;;;;;;;0.70;0.40;;;6.60;99.90;;;;;;5025178;28;20039;-70
2021/03/15 09:50:28;;;;;;;0.45;0.30;;;6.80;99.90;;;;;;5029068;28;20389;-69
2021/03/15 09:53:13;;;;;;;1.00;0.40;;;7.00;99.90;;;;;;5027878;28;20094;-69
2021/03/15 09:56:09;;;;;;;0.52;0.32;;;7.20;99.90;;;;;;5031027;28;20056;-69
2021/03/15 09:58:53;;;;;;;0.60;0.40;;;7.40;99.90;;;;;;5030717;28;20095;-70
2021/03/15 10:01:45;;;;;;;1.15;0.40;;;7.50;99.90;;;;;;5024303;28;20218;-70
2021/03/15 10:04:34;;;;;;;0.50;0.30;;;7.80;99.90;;;;;;5016174;28;20119;-70
2021/03/15 10:07:18;;;;;;;1.00;0.40;;;7.60;99.90;;;;;;5028443;28;20147;-69
2021/03/15 10:10:11;;;;;;;1.50;0.70;;;7.30;99.90;;;;;;5025816;28;20061;-69
2021/03/15 10:13:01;;;;;;;1.25;0.50;;;7.90;99.90;;;;;;5030568;28;20037;-69
2021/03/15 10:15:46;;;;;;;0.80;0.40;;;8.20;99.90;;;;;;5029919;28;20136;-69
2021/03/15 10:18:30;;;;;;;0.73;0.32;;;8.40;99.90;;;;;;5026343;28;20041;-70
2021/03/15 10:21:27;;;;;;;1.52;0.60;;;8.30;99.90;;;;;;5040560;28;20045;-70
2021/03/15 10:24:11;;;;;;;1.00;0.40;;;8.10;99.90;;;;;;5015362;28;20033;-69
2021/03/15 10:26:56;;;;;;;1.20;0.40;;;7.70;99.90;;;;;;5016505;28;20065;-70
2021/03/15 10:29:41;;;;;;;1.15;0.50;;;7.50;99.90;;;;;;5014824;28;20026;-69
2021/03/15 10:32:28;;;;;;;2.85;0.50;;;7.50;99.90;;;;;;5018792;28;20064;-69
2021/03/15 10:35:12;;;;;;;0.88;0.40;;;7.40;99.90;;;;;;5037227;28;20029;-70
2021/03/15 10:38:07;;;;;;;14.57;0.88;;;7.60;99.90;;;;;;5009623;28;20488;-70
2021/03/15 10:40:52;;;;;;;0.95;0.47;;;7.70;99.90;;;;;;5020214;28;20034;-70
2021/03/15 10:43:36;;;;;;;1.52;0.43;;;7.50;99.90;;;;;;5020006;28;20071;-70
2021/03/15 10:46:26;;;;;;;2.15;0.60;;;7.70;99.90;;;;;;5015197;28;20072;-70
2021/03/15 10:49:22;;;;;;;5.60;2.63;;;7.80;99.90;;;;;;5010929;28;20108;-70
2021/03/15 10:52:06;;;;;;;1.20;0.52;;;8.10;99.90;;;;;;5015019;28;20463;-70
2021/03/15 10:54:51;;;;;;;1.33;0.50;;;8.20;99.90;;;;;;5011643;28;20124;-70
2021/03/15 10:57:35;;;;;;;2.08;0.50;;;7.70;99.90;;;;;;5034092;28;20072;-70
2021/03/15 11:00:35;;;;;;;2.42;1.10;;;7.40;99.90;;;;;;5025508;28;20086;-69
2021/03/15 11:03:25;;;;;;;2.70;0.60;;;7.60;99.90;;;;;;5012152;28;20201;-70
2021/03/15 11:06:15;;;;;;;1.50;0.40;;;7.30;99.90;;;;;;5026809;28;20037;-70
2021/03/15 11:08:59;;;;;;;0.73;0.40;;;6.70;99.90;;;;;;5022461;28;20048;-69
2021/03/15 11:11:53;;;;;;;0.95;0.47;;;6.30;99.90;;;;;;5022170;28;20025;-69
2021/03/15 11:14:38;;;;;;;2.65;0.43;;;6.30;99.90;;;;;;5028825;28;20120;-69
2021/03/15 11:17:23;;;;;;;1.17;0.50;;;6.30;99.90;;;;;;5027747;28;20036;-70
2021/03/15 11:20:10;;;;;;;1.50;0.45;;;6.50;99.90;;;;;;5018060;28;20415;-69
2021/03/15 11:22:55;;;;;;;0.40;0.30;;;6.90;99.90;;;;;;5014891;28;20067;-70
2021/03/15 11:25:39;;;;;;;2.50;0.40;;;7.10;99.90;;;;;;5026380;28;20627;-70
2021/03/15 11:28:31;;;;;;;1.45;0.35;;;7.40;99.90;;;;;;5010842;28;20030;-69
2021/03/15 11:31:17;;;;;;;2.40;0.40;;;7.80;99.90;;;;;;5041756;28;20525;-70
2021/03/15 11:34:02;;;;;;;1.95;0.50;;;8.00;99.90;;;;;;5030347;28;20048;-70
2021/03/15 11:36:48;;;;;;;5.53;0.50;;;7.90;99.90;;;;;;5029767;28;20048;-70
2021/03/15 11:39:39;;;;;;;3.53;0.60;;;7.60;99.90;;;;;;5029439;28;20032;-70
2021/03/15 11:42:26;;;;;;;1.95;0.43;;;7.50;99.90;;;;;;5027851;28;20490;-70
2021/03/15 11:45:11;;;;;;;24.52;2.20;;;7.60;99.90;;;;;;5027650;28;20132;-70
2021/03/15 11:47:56;;;;;;;2.80;0.50;;;7.60;99.90;;;;;;5026057;28;20057;-70
2021/03/15 11:50:41;;;;;;;7.93;0.70;;;7.60;99.90;;;;;;5022656;28;20503;-69
2021/03/15 11:53:25;;;;;;;5.28;0.50;;;7.60;99.90;;;;;;5026821;28;20033;-70
2021/03/15 11:56:10;;;;;;;2.55;0.47;;;7.60;99.90;;;;;;5019365;28;20485;-69
2021/03/15 11:58:54;;;;;;;2.17;0.55;;;7.70;99.90;;;;;;5027433;28;20106;-71
2021/03/15 12:01:38;;;;;;;3.28;0.70;;;7.80;99.90;;;;;;5027542;28;20036;-70
2021/03/15 12:04:23;;;;;;;2.83;0.50;;;7.80;99.90;;;;;;5005274;28;20042;-69
2021/03/15 12:07:07;;;;;;;1.33;0.40;;;8.10;99.90;;;;;;5014844;28;20095;-69
2021/03/15 12:09:51;;;;;;;1.42;0.50;;;8.40;99.90;;;;;;5026808;28;20033;-68
2021/03/15 12:12:36;;;;;;;1.95;0.50;;;8.60;99.90;;;;;;5028220;28;20053;-69
2021/03/15 12:15:20;;;;;;;4.00;0.75;;;8.70;99.90;;;;;;5023858;28;20044;-69
2021/03/15 12:18:05;;;;;;;1.98;0.52;;;8.70;99.90;;;;;;5008943;28;20087;-69
2021/03/15 12:20:50;;;;;;;2.78;0.80;;;9.00;99.90;;;;;;5019433;28;20021;-69
2021/03/15 12:23:34;;;;;;;2.70;0.60;;;9.30;99.90;;;;;;5027887;28;20526;-69
2021/03/15 12:26:20;;;;;;;1.92;0.60;;;9.40;99.90;;;;;;5026021;28;20046;-70
2021/03/15 12:29:04;;;;;;;1.38;0.40;;;9.50;99.90;;;;;;5023071;28;20050;-70
2021/03/15 12:31:50;;;;;;;1.83;0.52;;;9.40;99.90;;;;;;5026933;28;20092;-70
2021/03/15 12:34:34;;;;;;;1.58;0.50;;;9.30;99.90;;;;;;5026294;28;20129;-70
2021/03/15 12:37:19;;;;;;;2.40;0.50;;;9.40;99.90;;;;;;5028320;28;20034;-69
2021/03/15 12:40:05;;;;;;;2.13;0.50;;;9.90;99.90;;;;;;5028906;28;20092;-69
2021/03/15 12:42:49;;;;;;;1.85;0.60;;;10.00;99.90;;;;;;5021284;28;20044;-70
2021/03/15 12:45:33;;;;;;;1.23;0.50;;;10.20;99.90;;;;;;5022372;28;20103;-69
2021/03/15 12:48:18;;;;;;;2.08;0.60;;;10.00;99.90;;;;;;5023548;28;20029;-69
2021/03/15 12:51:08;;;;;;;3.20;0.52;;;10.10;99.90;;;;;;5030067;28;20033;-70
2021/03/15 12:53:53;;;;;;;1.67;0.50;;;10.10;99.90;;;;;;5017899;28;20038;-69
2021/03/15 12:56:45;;;;;;;1.00;0.43;;;10.20;99.90;;;;;;5023172;28;20337;-69
2021/03/15 12:59:29;;;;;;;1.30;0.40;;;10.10;99.90;;;;;;5019638;28;20049;-69
2021/03/15 13:02:13;;;;;;;2.25;0.50;;;10.40;99.90;;;;;;5031476;28;20060;-69
2021/03/15 13:04:57;;;;;;;1.85;0.57;;;10.90;99.90;;;;;;5023640;28;20064;-70
2021/03/15 13:07:41;;;;;;;1.48;0.60;;;11.00;99.90;;;;;;5029649;28;20025;-70
2021/03/15 13:10:26;;;;;;;2.50;0.57;;;11.30;99.90;;;;;;5031232;28;20432;-70
2021/03/15 13:13:31;;;;;;;2.65;0.55;;;11.50;99.90;;;;;;5029531;28;20065;-69
2021/03/15 13:16:22;;;;;;;1.20;0.50;;;10.30;99.90;;;;;;5029996;28;20089;-70
2021/03/15 13:19:06;;;;;;;4.57;0.30;;;9.60;99.90;;;;;;5030860;28;20099;-70
2021/03/15 13:21:51;;;;;;;1.55;0.40;;;9.50;99.90;;;;;;5030161;28;20487;-70
2021/03/15 13:24:35;;;;;;;3.22;0.52;;;9.50;99.90;;;;;;5030709;28;20368;-69
2021/03/15 13:27:20;;;;;;;1.90;0.50;;;9.40;99.90;;;;;;5030927;28;20453;-70
2021/03/15 13:30:05;;;;;;;6.20;0.63;;;9.20;99.90;;;;;;5026998;28;20761;-69
2021/03/15 13:32:49;;;;;;;1.90;0.50;;;9.40;99.90;;;;;;5021721;28;20033;-70
2021/03/15 13:35:33;;;;;;;2.65;0.50;;;9.30;99.90;;;;;;5023769;28;20168;-70
2021/03/15 13:38:18;;;;;;;3.30;0.52;;;9.60;99.90;;;;;;5028410;28;20041;-69
2021/03/15 13:41:02;;;;;;;3.08;0.60;;;9.60;99.90;;;;;;5028048;28;20022;-70
2021/03/15 13:43:47;;;;;;;3.00;0.82;;;9.70;99.90;;;;;;5026857;28;20136;-70
2021/03/15 13:46:45;;;;;;;3.03;0.70;;;9.80;99.90;;;;;;5030780;28;20061;-70
2021/03/15 13:49:30;;;;;;;1.65;0.60;;;10.50;99.90;;;;;;5042717;28;20115;-70
2021/03/15 13:52:14;;;;;;;3.08;0.60;;;11.70;99.90;;;;;;5034797;28;20095;-70
2021/03/15 13:54:58;;;;;;;1.65;0.57;;;11.60;99.90;;;;;;5015766;28;20085;-70
2021/03/15 13:58:02;;;;;;;2.38;0.60;;;11.10;99.90;;;;;;5044572;28;20140;-70
2021/03/15 14:01:06;;;;;;;1.85;0.80;;;11.40;99.90;;;;;;5052467;28;20028;-70
2021/03/15 14:03:50;;;;;;;1.98;0.60;;;12.40;99.90;;;;;;5052005;28;20511;-70
2021/03/15 14:06:35;;;;;;;1.85;0.50;;;15.00;99.90;;;;;;5062919;28;20037;-71
2021/03/15 14:09:19;;;;;;;1.60;0.50;;;16.80;95.10;;;;;;5062871;28;20036;-69
2021/03/15 14:12:03;;;;;;;1.17;0.57;;;18.30;65.00;;;;;;5041022;28;20040;-69
2021/03/15 14:14:48;;;;;;;1.77;0.50;;;18.60;61.20;;;;;;5049953;28;20035;-69
2021/03/15 14:17:52;;;;;;;2.50;0.60;;;19.40;50.10;;;;;;5069043;28;20477;-69
2021/03/15 14:20:57;;;;;;;2.40;0.70;;;19.20;47.10;;;;;;5064301;28;20044;-69
2021/03/15 14:23:45;;;;;;;2.95;0.73;;;18.60;49.10;;;;;;5054320;28;20041;-69
2021/03/15 14:26:29;;;;;;;2.38;0.60;;;18.70;53.00;;;;;;5052128;28;20064;-69
2021/03/15 14:29:13;;;;;;;1.92;0.50;;;19.60;59.00;;;;;;5070309;28;20059;-68
2021/03/15 14:31:58;;;;;;;1.63;0.40;;;20.10;47.00;;;;;;5058142;28;20040;-69
2021/03/15 14:34:42;;;;;;;1.88;0.50;;;19.60;47.90;;;;;;5051555;28;20163;-69
2021/03/15 14:37:26;;;;;;;1.73;0.50;;;19.60;45.90;;;;;;5059053;28;20496;-68
2021/03/15 14:40:11;;;;;;;1.50;0.50;;;20.00;45.10;;;;;;5054629;28;20054;-68
2021/03/15 14:42:56;;;;;;;1.50;0.50;;;18.90;45.90;;;;;;5058461;28;20063;-68
2021/03/15 14:45:40;;;;;;;2.05;0.52;;;18.30;50.80;;;;;;5064448;28;20056;-68
2021/03/15 14:48:24;;;;;;;1.45;0.50;;;18.50;52.00;;;;;;5060103;28;20043;-69
2021/03/15 14:51:13;;;;;;;3.60;0.57;;;15.80;57.20;;;;;;5064133;28;20029;-69
2021/03/15 14:53:57;;;;;;;3.72;0.93;;;18.10;58.70;;;;;;5056179;28;20163;-69